createdAt,value
2023-05-06T00:00:16.816Z,93.64
2023-05-06T00:01:16.835Z,93.44
2023-05-06T00:02:16.821Z,93.24
2023-05-06T00:03:16.883Z,93.54
2023-05-06T00:04:16.790Z,93.44
2023-05-06T00:05:16.740Z,93.24
2023-05-06T00:06:16.752Z,93.38
2023-05-06T00:07:16.727Z,93.59
2023-05-06T00:08:16.697Z,94.09
2023-05-06T00:09:16.724Z,94.50
2023-05-06T00:10:16.711Z,95.01
2023-05-06T00:11:16.677Z,95.01
2023-05-06T00:12:16.651Z,95.06
2023-05-06T00:13:16.774Z,95.06
2023-05-06T00:14:16.659Z,95.01
2023-05-06T00:15:16.621Z,95.06
2023-05-06T00:16:16.683Z,94.95
2023-05-06T00:17:16.587Z,94.75
2023-05-06T00:18:16.561Z,94.75
2023-05-06T00:19:16.583Z,94.75
2023-05-06T00:20:16.534Z,94.95
2023-05-06T00:21:16.544Z,94.85
2023-05-06T00:22:16.538Z,94.45
2023-05-06T00:23:16.502Z,94.34
2023-05-06T00:24:16.478Z,94.34
2023-05-06T00:25:16.484Z,94.34
2023-05-06T00:26:16.495Z,94.14
2023-05-06T00:27:16.467Z,94.04
2023-05-06T00:28:16.439Z,94.14
2023-05-06T00:29:16.421Z,94.04
2023-05-06T00:30:16.405Z,93.84
2023-05-06T00:31:16.440Z,94.24
2023-05-06T00:32:16.409Z,94.14
2023-05-06T00:33:16.385Z,94.45
2023-05-06T00:34:16.352Z,94.65
2023-05-06T00:35:16.361Z,94.55
2023-05-06T00:36:16.353Z,94.45
2023-05-06T00:37:16.319Z,94.45
2023-05-06T00:38:16.298Z,94.45
2023-05-06T00:39:16.320Z,94.55
2023-05-06T00:40:16.277Z,94.34
2023-05-06T00:41:16.301Z,94.20
2023-05-06T00:42:16.271Z,94.40
2023-05-06T00:43:16.228Z,94.30
2023-05-06T00:44:16.220Z,94.40
2023-05-06T00:45:16.246Z,94.40
2023-05-06T00:46:16.231Z,94.30
2023-05-06T00:47:16.201Z,94.20
2023-05-06T00:48:16.339Z,94.30
2023-05-06T00:49:16.164Z,94.40
2023-05-06T00:50:16.139Z,94.20
2023-05-06T00:51:16.207Z,93.89
2023-05-06T00:52:16.170Z,93.89
2023-05-06T00:53:16.131Z,94.24
2023-05-06T00:54:16.123Z,94.55
2023-05-06T00:55:16.082Z,94.65
2023-05-06T00:56:16.051Z,94.75
2023-05-06T00:57:16.068Z,94.85
2023-05-06T00:58:16.105Z,94.95
2023-05-06T00:59:16.031Z,94.75
2023-05-06T01:00:15.992Z,94.65
2023-05-06T01:01:16.047Z,94.75
2023-05-06T01:02:16.029Z,94.55
2023-05-06T01:03:16.058Z,94.34
2023-05-06T01:04:15.973Z,94.24
2023-05-06T01:05:15.973Z,94.34
2023-05-06T01:06:15.934Z,94.34
2023-05-06T01:07:15.935Z,94.34
2023-05-06T01:08:15.976Z,94.34
2023-05-06T01:09:15.895Z,94.55
2023-05-06T01:10:15.877Z,94.45
2023-05-06T01:11:16.101Z,94.75
2023-05-06T01:12:15.891Z,94.55
2023-05-06T01:13:15.980Z,94.04
2023-05-06T01:14:15.823Z,93.73
2023-05-06T01:15:15.839Z,93.84
2023-05-06T01:16:15.793Z,93.93
2023-05-06T01:17:15.872Z,94.34
2023-05-06T01:18:15.809Z,94.55
2023-05-06T01:19:15.756Z,94.55
2023-05-06T01:20:15.763Z,94.24
2023-05-06T01:21:15.775Z,94.14
2023-05-06T01:22:15.746Z,93.73
2023-05-06T01:23:15.740Z,93.63
2023-05-06T01:24:15.694Z,93.63
2023-05-06T01:25:15.694Z,93.93
2023-05-06T01:26:15.674Z,93.98
2023-05-06T01:27:15.661Z,93.93
2023-05-06T01:28:15.666Z,93.77
2023-05-06T01:29:15.630Z,93.67
2023-05-06T01:30:15.635Z,93.77
2023-05-06T01:31:15.732Z,94.08
2023-05-06T01:32:15.703Z,93.98
2023-05-06T01:33:15.579Z,93.88
2023-05-06T01:34:15.635Z,94.18
2023-05-06T01:35:15.587Z,94.08
2023-05-06T01:36:15.529Z,93.98
2023-05-06T01:37:15.510Z,93.98
2023-05-06T01:38:15.508Z,94.08
2023-05-06T01:39:15.521Z,93.98
2023-05-06T01:40:15.489Z,93.98
2023-05-06T01:41:15.469Z,93.98
2023-05-06T01:42:15.455Z,93.98
2023-05-06T01:43:15.444Z,93.77
2023-05-06T01:44:15.453Z,93.77
2023-05-06T01:45:15.427Z,93.88
2023-05-06T01:46:15.457Z,93.98
2023-05-06T01:47:15.388Z,93.98
2023-05-06T01:48:15.374Z,93.67
2023-05-06T01:49:15.362Z,93.77
2023-05-06T01:50:15.363Z,93.77
2023-05-06T01:51:15.360Z,94.08
2023-05-06T01:52:15.303Z,93.98
2023-05-06T01:53:15.305Z,93.88
2023-05-06T01:54:15.289Z,94.12
2023-05-06T01:55:15.325Z,94.33
2023-05-06T01:56:15.308Z,94.53
2023-05-06T01:57:15.242Z,94.33
2023-05-06T01:58:15.256Z,94.23
2023-05-06T01:59:15.273Z,94.12
2023-05-06T02:00:15.212Z,94.02
2023-05-06T02:01:15.265Z,94.02
2023-05-06T02:02:15.196Z,93.82
2023-05-06T02:03:15.307Z,93.71
2023-05-06T02:04:15.205Z,93.31
2023-05-06T02:05:15.167Z,93.31
2023-05-06T02:06:15.185Z,93.21
2023-05-06T02:07:15.118Z,93.41
2023-05-06T02:08:15.148Z,93.82
2023-05-06T02:09:15.106Z,94.12
2023-05-06T02:10:15.073Z,94.23
2023-05-06T02:11:15.096Z,94.23
2023-05-06T02:12:15.060Z,94.17
2023-05-06T02:13:15.125Z,94.17
2023-05-06T02:14:15.027Z,94.17
2023-05-06T02:15:15.021Z,93.96
2023-05-06T02:16:15.079Z,94.07
2023-05-06T02:17:14.984Z,93.86
2023-05-06T02:18:14.993Z,93.76
2023-05-06T02:19:14.970Z,93.66
2023-05-06T02:20:14.946Z,93.25
2023-05-06T02:21:14.951Z,93.05
2023-05-06T02:22:14.981Z,93.25
2023-05-06T02:23:14.922Z,93.15
2023-05-06T02:24:14.892Z,93.05
2023-05-06T02:25:14.923Z,93.66
2023-05-06T02:26:14.860Z,93.86
2023-05-06T02:27:14.879Z,94.17
2023-05-06T02:28:14.834Z,94.82
2023-05-06T02:29:14.880Z,95.34
2023-05-06T02:30:14.874Z,95.44
2023-05-06T02:31:14.885Z,95.13
2023-05-06T02:32:14.785Z,95.23
2023-05-06T02:33:14.780Z,95.34
2023-05-06T02:34:14.788Z,95.23
2023-05-06T02:35:14.738Z,95.44
2023-05-06T02:36:14.760Z,95.44
2023-05-06T02:37:14.715Z,95.23
2023-05-06T02:38:14.748Z,95.13
2023-05-06T02:39:14.697Z,95.13
2023-05-06T02:40:14.676Z,95.13
2023-05-06T02:41:14.808Z,94.93
2023-05-06T02:42:14.690Z,95.03
2023-05-06T02:43:14.647Z,95.03
2023-05-06T02:44:14.647Z,95.03
2023-05-06T02:45:14.610Z,95.54
2023-05-06T02:46:14.632Z,95.85
2023-05-06T02:47:14.601Z,95.75
2023-05-06T02:48:14.608Z,95.75
2023-05-06T02:49:14.608Z,95.85
2023-05-06T02:50:14.542Z,95.75
2023-05-06T02:51:14.557Z,95.64
2023-05-06T02:52:14.525Z,95.44
2023-05-06T02:53:14.503Z,95.64
2023-05-06T02:54:35.521Z,95.44
2023-05-06T02:55:14.500Z,95.44
2023-05-06T02:56:14.479Z,95.54
2023-05-06T02:57:14.459Z,95.54
2023-05-06T02:58:14.507Z,95.54
2023-05-06T02:59:14.477Z,95.75
2023-05-06T03:00:14.421Z,95.64
2023-05-06T03:01:14.408Z,95.75
2023-05-06T03:02:14.391Z,96.15
2023-05-06T03:03:14.369Z,96.05
2023-05-06T03:04:14.425Z,96.15
2023-05-06T03:05:14.345Z,96.15
2023-05-06T03:06:14.347Z,96.15
2023-05-06T03:07:14.316Z,96.26
2023-05-06T03:08:14.313Z,96.41
2023-05-06T03:09:14.319Z,96.41
2023-05-06T03:10:14.316Z,96.36
2023-05-06T03:11:14.353Z,96.26
2023-05-06T03:12:14.270Z,95.85
2023-05-06T03:13:14.345Z,95.75
2023-05-06T03:14:14.255Z,95.75
2023-05-06T03:15:14.214Z,95.64
2023-05-06T03:16:14.222Z,95.64
2023-05-06T03:17:14.171Z,95.64
2023-05-06T03:18:14.208Z,95.54
2023-05-06T03:19:14.163Z,95.85
2023-05-06T03:20:14.149Z,95.95
2023-05-06T03:21:14.172Z,95.85
2023-05-06T03:22:14.176Z,95.95
2023-05-06T03:23:14.150Z,96.26
2023-05-06T03:24:14.099Z,96.36
2023-05-06T03:25:14.084Z,96.67
2023-05-06T03:26:14.105Z,96.77
2023-05-06T03:27:14.054Z,96.77
2023-05-06T03:28:14.045Z,96.87
2023-05-06T03:29:14.057Z,96.77
2023-05-06T03:30:14.020Z,96.87
2023-05-06T03:31:14.044Z,97.17
2023-05-06T03:32:14.011Z,97.53
2023-05-06T03:33:13.986Z,97.42
2023-05-06T03:34:13.976Z,97.63
2023-05-06T03:35:13.966Z,97.63
2023-05-06T03:36:14.009Z,97.63
2023-05-06T03:37:13.989Z,97.83
2023-05-06T03:38:13.908Z,97.74
2023-05-06T03:39:13.898Z,97.74
2023-05-06T03:40:13.899Z,97.74
2023-05-06T03:41:13.872Z,97.63
2023-05-06T03:42:13.881Z,97.83
2023-05-06T03:43:13.876Z,97.83
2023-05-06T03:44:13.816Z,97.74
2023-05-06T03:45:13.839Z,97.53
2023-05-06T03:46:13.852Z,97.53
2023-05-06T03:47:13.775Z,97.53
2023-05-06T03:48:14.016Z,97.63
2023-05-06T03:49:13.764Z,97.63
2023-05-06T03:50:13.783Z,97.53
2023-05-06T03:51:13.779Z,97.28
2023-05-06T03:52:13.741Z,97.22
2023-05-06T03:53:13.740Z,97.17
2023-05-06T03:54:13.700Z,97.17
2023-05-06T03:55:13.679Z,96.97
2023-05-06T03:56:13.685Z,96.87
2023-05-06T03:57:13.634Z,96.87
2023-05-06T03:58:13.677Z,96.67
2023-05-06T03:59:13.639Z,96.67
2023-05-06T04:00:13.646Z,96.67
2023-05-06T04:01:13.591Z,96.56
2023-05-06T04:02:13.669Z,96.46
2023-05-06T04:03:13.629Z,96.67
2023-05-06T04:04:13.739Z,96.51
2023-05-06T04:05:13.544Z,96.36
2023-05-06T04:06:13.532Z,96.26
2023-05-06T04:07:13.528Z,96.36
2023-05-06T04:08:13.561Z,96.26
2023-05-06T04:09:13.470Z,96.15
2023-05-06T04:10:13.498Z,96.15
2023-05-06T04:11:13.474Z,96.05
2023-05-06T04:12:13.433Z,95.85
2023-05-06T04:13:13.510Z,95.59
2023-05-06T04:14:13.455Z,95.79
2023-05-06T04:15:13.429Z,95.89
2023-05-06T04:16:13.447Z,95.89
2023-05-06T04:17:13.397Z,95.79
2023-05-06T04:18:13.383Z,95.79
2023-05-06T04:19:13.347Z,95.89
2023-05-06T04:20:13.368Z,95.89
2023-05-06T04:21:13.331Z,95.79
2023-05-06T04:22:13.327Z,96.00
2023-05-06T04:23:13.299Z,96.10
2023-05-06T04:24:13.277Z,96.00
2023-05-06T04:26:40.759Z,96.00
2023-05-06T04:26:46.089Z,95.85
2023-05-06T04:27:46.084Z,95.85
2023-05-06T04:28:46.104Z,96.05
2023-05-06T04:29:46.095Z,96.15
2023-05-06T04:30:46.035Z,96.05
2023-05-06T04:31:46.082Z,96.15
2023-05-06T04:32:46.096Z,96.15
2023-05-06T04:33:46.033Z,96.26
2023-05-06T04:34:46.004Z,96.26
2023-05-06T04:35:46.001Z,96.15
2023-05-06T04:36:45.996Z,95.85
2023-05-06T04:37:45.948Z,95.64
2023-05-06T04:38:45.956Z,95.85
2023-05-06T04:39:46.021Z,95.85
2023-05-06T04:40:45.939Z,96.05
2023-05-06T04:41:45.894Z,96.05
2023-05-06T04:42:45.892Z,96.15
2023-05-06T04:43:45.900Z,96.15
2023-05-06T04:44:45.904Z,96.15
2023-05-06T04:45:45.891Z,96.26
2023-05-06T04:46:45.837Z,96.46
2023-05-06T04:47:45.876Z,96.56
2023-05-06T04:48:45.841Z,96.56
2023-05-06T04:49:45.792Z,96.56
2023-05-06T04:50:45.798Z,96.67
2023-05-06T04:51:45.766Z,96.67
2023-05-06T04:52:45.759Z,96.67
2023-05-06T04:53:45.788Z,96.67
2023-05-06T04:54:45.871Z,96.67
2023-05-06T04:55:45.727Z,96.62
2023-05-06T04:56:45.694Z,96.67
2023-05-06T04:57:45.680Z,96.92
2023-05-06T04:58:45.740Z,97.13
2023-05-06T04:59:45.695Z,97.03
2023-05-06T05:00:45.644Z,97.03
2023-05-06T05:01:45.687Z,96.92
2023-05-06T05:02:45.708Z,96.92
2023-05-06T05:03:45.649Z,97.03
2023-05-06T05:04:45.608Z,97.03
2023-05-06T05:05:45.577Z,97.33
2023-05-06T05:06:45.584Z,97.33
2023-05-06T05:07:45.580Z,97.33
2023-05-06T05:08:45.539Z,97.33
2023-05-06T05:09:45.533Z,97.33
2023-05-06T05:10:45.521Z,97.33
2023-05-06T05:11:45.502Z,97.24
2023-05-06T05:12:45.509Z,97.24
2023-05-06T05:13:45.477Z,97.13
2023-05-06T05:14:45.458Z,97.19
2023-05-06T05:15:45.448Z,97.19
2023-05-06T05:16:45.472Z,97.19
2023-05-06T05:17:45.460Z,97.19
2023-05-06T05:18:45.465Z,97.19
2023-05-06T05:19:45.382Z,96.98
2023-05-06T05:20:45.396Z,96.68
2023-05-06T05:21:45.369Z,96.58
2023-05-06T05:22:45.349Z,96.37
2023-05-06T05:23:45.342Z,96.27
2023-05-06T05:24:45.324Z,96.37
2023-05-06T05:25:46.266Z,96.37
2023-05-06T05:26:45.325Z,96.37
2023-05-06T05:27:45.284Z,96.33
2023-05-06T05:28:45.279Z,96.53
2023-05-06T05:29:45.252Z,96.33
2023-05-06T05:30:45.274Z,96.22
2023-05-06T05:31:45.284Z,96.53
2023-05-06T05:32:45.258Z,96.53
2023-05-06T05:33:45.293Z,96.63
2023-05-06T05:34:45.221Z,96.53
2023-05-06T05:35:45.178Z,96.53
2023-05-06T05:36:45.169Z,96.63
2023-05-06T05:37:45.185Z,96.53
2023-05-06T05:38:45.183Z,96.53
2023-05-06T05:39:45.124Z,96.63
2023-05-06T05:40:45.117Z,96.53
2023-05-06T05:41:45.121Z,96.53
2023-05-06T05:42:45.085Z,96.53
2023-05-06T05:43:45.087Z,96.63
2023-05-06T05:44:45.066Z,96.63
2023-05-06T05:45:45.048Z,96.63
2023-05-06T05:46:45.109Z,96.73
2023-05-06T05:47:45.077Z,96.79
2023-05-06T05:48:45.016Z,96.79
2023-05-06T05:49:44.994Z,96.69
2023-05-06T05:50:45.017Z,96.48
2023-05-06T05:51:44.965Z,96.28
2023-05-06T05:52:44.951Z,96.38
2023-05-06T05:53:44.946Z,96.48
2023-05-06T05:54:44.921Z,96.48
2023-05-06T05:55:44.926Z,96.84
2023-05-06T05:56:44.918Z,97.05
2023-05-06T05:57:44.884Z,96.95
2023-05-06T05:58:44.889Z,97.16
2023-05-06T05:59:44.862Z,96.84
2023-05-06T06:00:44.898Z,96.44
2023-05-06T06:01:44.837Z,96.23
2023-05-06T06:02:44.928Z,96.19
2023-05-06T06:03:44.976Z,96.39
2023-05-06T06:04:44.841Z,96.30
2023-05-06T06:05:44.779Z,95.89
2023-05-06T06:06:44.752Z,95.68
2023-05-06T06:07:44.768Z,95.68
2023-05-06T06:08:44.728Z,95.17
2023-05-06T06:09:44.751Z,94.87
2023-05-06T06:10:44.742Z,95.17
2023-05-06T06:11:44.719Z,94.76
2023-05-06T06:12:44.886Z,94.46
2023-05-06T06:13:44.716Z,94.46
2023-05-06T06:14:44.648Z,94.46
2023-05-06T06:15:44.638Z,94.42
2023-05-06T06:16:44.705Z,94.82
2023-05-06T06:17:44.641Z,95.03
2023-05-06T06:18:44.630Z,95.33
2023-05-06T06:19:44.586Z,95.23
2023-05-06T06:20:44.568Z,95.03
2023-05-06T06:21:44.582Z,94.82
2023-05-06T06:22:44.551Z,94.21
2023-05-06T06:23:44.557Z,94.31
2023-05-06T06:24:44.549Z,94.52
2023-05-06T06:25:44.536Z,94.62
2023-05-06T06:26:44.502Z,94.52
2023-05-06T06:27:44.493Z,94.72
2023-05-06T06:28:44.563Z,94.82
2023-05-06T06:29:44.473Z,94.72
2023-05-06T06:30:44.494Z,94.72
2023-05-06T06:31:44.507Z,94.92
2023-05-06T06:32:44.480Z,95.03
2023-05-06T06:33:44.398Z,95.29
2023-05-06T06:34:44.391Z,95.49
2023-05-06T06:35:44.409Z,95.79
2023-05-06T06:36:44.348Z,95.69
2023-05-06T06:37:44.327Z,95.45
2023-05-06T06:38:44.331Z,95.54
2023-05-06T06:39:44.363Z,95.24
2023-05-06T06:40:44.360Z,94.12
2023-05-06T06:41:44.308Z,93.47
2023-05-06T06:42:44.316Z,91.94
2023-05-06T06:43:44.255Z,91.84
2023-05-06T06:44:44.261Z,90.31
2023-05-06T06:45:44.295Z,90.07
2023-05-06T06:46:44.236Z,89.15
2023-05-06T06:47:44.245Z,89.36
2023-05-06T06:48:44.303Z,88.60
2023-05-06T06:49:44.251Z,88.50
2023-05-06T06:50:44.247Z,88.26
2023-05-06T06:51:44.197Z,88.36
2023-05-06T06:52:44.176Z,88.01
2023-05-06T06:53:44.228Z,88.21
2023-05-06T06:54:44.113Z,86.80
2023-05-06T06:55:44.237Z,87.26
2023-05-06T06:56:44.122Z,88.38
2023-05-06T06:57:44.227Z,88.48
2023-05-06T06:58:44.100Z,90.61
2023-05-06T06:59:44.070Z,90.20
2023-05-06T07:00:44.068Z,90.92
2023-05-06T07:01:44.136Z,90.47
2023-05-06T07:02:44.057Z,89.86
2023-05-06T07:03:44.020Z,88.95
2023-05-06T07:04:44.020Z,88.23
2023-05-06T07:05:44.048Z,88.44
2023-05-06T07:06:43.944Z,88.44
2023-05-06T07:07:43.938Z,88.23
2023-05-06T07:08:43.915Z,88.34
2023-05-06T07:09:43.936Z,88.90
2023-05-06T07:10:43.904Z,88.80
2023-05-06T07:11:43.888Z,89.41
2023-05-06T07:12:43.883Z,88.60
2023-05-06T07:13:43.871Z,88.35
2023-05-06T07:14:43.853Z,87.24
2023-05-06T07:15:43.850Z,84.61
2023-05-06T07:16:46.158Z,84.44
2023-05-06T07:17:43.841Z,86.37
2023-05-06T07:18:43.794Z,86.68
2023-05-06T07:19:43.807Z,86.68
2023-05-06T07:20:43.782Z,86.63
2023-05-06T07:21:43.757Z,85.01
2023-05-06T07:22:43.846Z,84.41
2023-05-06T07:23:43.795Z,86.13
2023-05-06T07:24:43.701Z,86.13
2023-05-06T07:25:43.700Z,87.24
2023-05-06T07:26:43.688Z,87.51
2023-05-06T07:27:43.689Z,87.51
2023-05-06T07:28:43.674Z,87.26
2023-05-06T07:29:43.635Z,85.24
2023-05-06T07:30:43.707Z,84.73
2023-05-06T07:31:43.613Z,85.54
2023-05-06T07:32:43.679Z,86.55
2023-05-06T07:33:43.596Z,84.42
2023-05-06T07:34:43.574Z,85.13
2023-05-06T07:35:43.589Z,85.24
2023-05-06T07:36:43.706Z,84.83
2023-05-06T07:37:43.587Z,85.03
2023-05-06T07:38:43.549Z,83.41
2023-05-06T07:39:43.524Z,85.13
2023-05-06T07:40:43.506Z,84.73
2023-05-06T07:41:43.498Z,85.13
2023-05-06T07:42:43.512Z,84.12
2023-05-06T07:43:43.469Z,83.21
2023-05-06T07:44:43.449Z,82.70
2023-05-06T07:45:43.476Z,82.81
2023-05-06T07:46:43.549Z,83.11
2023-05-06T07:47:43.505Z,83.51
2023-05-06T07:48:43.400Z,83.41
2023-05-06T07:49:43.414Z,83.21
2023-05-06T07:50:43.373Z,82.70
2023-05-06T07:51:43.375Z,82.50
2023-05-06T07:52:43.337Z,82.60
2023-05-06T07:53:43.418Z,82.20
2023-05-06T07:54:43.344Z,81.99
2023-05-06T07:55:43.304Z,82.70
2023-05-06T07:56:43.278Z,83.17
2023-05-06T07:57:43.296Z,82.46
2023-05-06T07:58:43.244Z,81.85
2023-05-06T07:59:43.244Z,83.27
2023-05-06T08:00:43.238Z,83.17
2023-05-06T08:01:43.214Z,82.16
2023-05-06T08:02:43.346Z,83.17
2023-05-06T08:03:43.513Z,81.65
2023-05-06T08:04:43.262Z,80.74
2023-05-06T08:05:43.158Z,80.13
2023-05-06T08:06:43.145Z,80.94
2023-05-06T08:07:43.155Z,80.00
2023-05-06T08:08:43.123Z,80.60
2023-05-06T08:09:43.116Z,81.21
2023-05-06T08:10:43.087Z,82.62
2023-05-06T08:11:43.082Z,83.40
2023-05-06T08:12:43.145Z,82.59
2023-05-06T08:13:43.088Z,82.95
2023-05-06T08:14:43.048Z,79.82
2023-05-06T08:15:43.046Z,80.32
2023-05-06T08:16:43.115Z,81.74
2023-05-06T08:17:43.046Z,78.50
2023-05-06T08:18:42.979Z,78.41
2023-05-06T08:19:43.007Z,78.00
2023-05-06T08:20:42.973Z,76.89
2023-05-06T08:21:42.938Z,78.41
2023-05-06T08:22:42.930Z,77.70
2023-05-06T08:23:42.930Z,77.09
2023-05-06T08:24:42.974Z,77.80
2023-05-06T08:25:42.963Z,79.52
2023-05-06T08:26:42.911Z,78.50
2023-05-06T08:27:42.935Z,79.17
2023-05-06T08:28:42.851Z,79.17
2023-05-06T08:29:42.839Z,79.17
2023-05-06T08:30:42.822Z,78.67
2023-05-06T08:31:42.869Z,78.74
2023-05-06T08:32:42.844Z,77.93
2023-05-06T08:33:42.821Z,77.62
2023-05-06T08:34:42.784Z,77.32
2023-05-06T08:35:42.781Z,77.22
2023-05-06T08:36:42.776Z,77.93
2023-05-06T08:37:42.724Z,78.94
2023-05-06T08:38:42.833Z,76.82
2023-05-06T08:39:42.697Z,75.31
2023-05-06T08:40:42.715Z,76.58
2023-05-06T08:41:42.717Z,77.22
2023-05-06T08:42:42.699Z,77.49
2023-05-06T08:43:42.668Z,77.99
2023-05-06T08:44:42.635Z,78.80
2023-05-06T08:45:42.725Z,76.48
2023-05-06T08:46:42.647Z,76.18
2023-05-06T08:47:42.610Z,76.18
2023-05-06T08:48:42.596Z,76.48
2023-05-06T08:49:42.601Z,76.48
2023-05-06T08:50:42.570Z,77.39
2023-05-06T08:51:42.551Z,76.58
2023-05-06T08:52:42.532Z,76.38
2023-05-06T08:53:42.549Z,76.38
2023-05-06T08:54:42.514Z,77.25
2023-05-06T08:55:42.605Z,76.75
2023-05-06T08:56:42.497Z,76.84
2023-05-06T08:57:42.686Z,75.63
2023-05-06T08:58:42.464Z,76.71
2023-05-06T08:59:42.463Z,76.61
2023-05-06T09:00:42.419Z,74.08
2023-05-06T09:01:42.472Z,76.97
2023-05-06T09:02:43.466Z,78.49
2023-05-06T09:03:42.468Z,76.54
2023-05-06T09:04:42.409Z,76.54
2023-05-06T09:05:42.351Z,74.99
2023-05-06T09:06:42.355Z,77.97
2023-05-06T09:07:42.343Z,75.86
2023-05-06T09:08:42.367Z,74.32
2023-05-06T09:09:42.315Z,73.00
2023-05-06T09:10:42.325Z,73.21
2023-05-06T09:11:42.311Z,73.81
2023-05-06T09:12:42.315Z,73.51
2023-05-06T09:13:42.255Z,73.11
2023-05-06T09:14:42.256Z,72.41
2023-05-06T09:15:42.281Z,73.31
2023-05-06T09:16:42.309Z,72.81
2023-05-06T09:17:42.234Z,73.71
2023-05-06T09:18:42.179Z,73.11
2023-05-06T09:19:42.176Z,73.31
2023-05-06T09:20:42.168Z,74.32
2023-05-06T09:21:42.175Z,73.61
2023-05-06T09:22:42.132Z,73.11
2023-05-06T09:23:42.116Z,73.11
2023-05-06T09:24:42.102Z,74.11
2023-05-06T09:25:42.103Z,73.21
2023-05-06T09:26:42.131Z,71.70
2023-05-06T09:27:42.080Z,71.60
2023-05-06T09:28:42.044Z,71.60
2023-05-06T09:29:42.056Z,72.20
2023-05-06T09:30:42.177Z,72.10
2023-05-06T09:31:42.035Z,73.21
2023-05-06T09:32:42.113Z,73.21
2023-05-06T09:33:41.987Z,72.50
2023-05-06T09:34:42.013Z,72.44
2023-05-06T09:35:42.011Z,71.94
2023-05-06T09:36:41.983Z,72.54
2023-05-06T09:37:41.942Z,72.34
2023-05-06T09:38:41.948Z,72.24
2023-05-06T09:39:41.912Z,72.03
2023-05-06T09:40:41.902Z,73.24
2023-05-06T09:41:41.908Z,74.65
2023-05-06T09:42:41.897Z,75.56
2023-05-06T09:43:41.845Z,75.62
2023-05-06T09:44:41.843Z,74.62
2023-05-06T09:45:41.823Z,71.67
2023-05-06T09:46:41.888Z,71.56
2023-05-06T09:47:41.854Z,71.87
2023-05-06T09:48:41.811Z,72.07
2023-05-06T09:49:41.779Z,71.97
2023-05-06T09:50:41.759Z,72.27
2023-05-06T09:51:41.782Z,72.47
2023-05-06T09:52:41.725Z,72.17
2023-05-06T09:53:41.755Z,72.44
2023-05-06T09:54:41.710Z,71.73
2023-05-06T09:55:41.692Z,70.32
2023-05-06T09:56:41.682Z,71.03
2023-05-06T09:57:41.709Z,70.73
2023-05-06T09:58:41.665Z,70.46
2023-05-06T09:59:41.650Z,70.06
2023-05-06T10:00:41.625Z,69.85
2023-05-06T10:01:41.640Z,70.66
2023-05-06T10:02:41.893Z,70.56
2023-05-06T10:03:41.715Z,70.19
2023-05-06T10:04:41.817Z,70.59
2023-05-06T10:05:41.567Z,70.39
2023-05-06T10:06:41.560Z,70.83
2023-05-06T10:07:41.565Z,71.43
2023-05-06T10:08:41.511Z,71.63
2023-05-06T10:09:41.601Z,72.14
2023-05-06T10:10:41.554Z,72.17
2023-05-06T10:11:41.491Z,71.87
2023-05-06T10:12:41.548Z,71.47
2023-05-06T10:13:41.461Z,71.77
2023-05-06T10:14:41.459Z,72.41
2023-05-06T10:15:41.472Z,72.81
2023-05-06T10:16:41.494Z,73.21
2023-05-06T10:17:41.421Z,74.12
2023-05-06T10:18:41.421Z,74.05
2023-05-06T10:19:41.377Z,74.86
2023-05-06T10:20:41.375Z,74.35
2023-05-06T10:21:41.363Z,74.76
2023-05-06T10:22:41.337Z,74.55
2023-05-06T10:23:41.323Z,75.50
2023-05-06T10:24:41.323Z,75.50
2023-05-06T10:25:41.323Z,75.30
2023-05-06T10:26:41.302Z,75.30
2023-05-06T10:27:41.288Z,75.40
2023-05-06T10:28:41.248Z,76.14
2023-05-06T10:29:41.225Z,75.94
2023-05-06T10:30:41.254Z,76.04
2023-05-06T10:31:41.256Z,76.54
2023-05-06T10:32:41.224Z,77.25
2023-05-06T10:33:42.351Z,76.84
2023-05-06T10:34:41.175Z,77.04
2023-05-06T10:35:41.200Z,76.84
2023-05-06T10:36:41.177Z,77.25
2023-05-06T10:37:41.120Z,77.75
2023-05-06T10:38:41.125Z,77.15
2023-05-06T10:39:42.251Z,77.95
2023-05-06T10:40:41.112Z,77.45
2023-05-06T10:41:41.081Z,77.66
2023-05-06T10:42:41.058Z,77.66
2023-05-06T10:43:41.054Z,77.86
2023-05-06T10:44:41.061Z,77.95
2023-05-06T10:45:41.034Z,77.95
2023-05-06T10:46:41.094Z,78.16
2023-05-06T10:47:41.030Z,78.63
2023-05-06T10:48:40.973Z,78.12
2023-05-06T10:49:40.968Z,77.62
2023-05-06T10:50:40.991Z,78.02
2023-05-06T10:51:40.933Z,77.72
2023-05-06T10:52:40.939Z,77.42
2023-05-06T10:53:40.916Z,76.61
2023-05-06T10:54:40.917Z,77.01
2023-05-06T10:55:40.882Z,76.81
2023-05-06T10:56:40.887Z,76.40
2023-05-06T10:57:40.871Z,76.71
2023-05-06T10:58:40.887Z,76.20
2023-05-06T10:59:40.829Z,76.40
2023-05-06T11:00:40.831Z,76.71
2023-05-06T11:01:40.833Z,76.40
2023-05-06T11:02:40.826Z,76.31
2023-05-06T11:03:40.831Z,76.81
2023-05-06T11:04:40.754Z,76.51
2023-05-06T11:05:40.779Z,76.10
2023-05-06T11:06:40.740Z,76.61
2023-05-06T11:07:40.729Z,76.20
2023-05-06T11:08:40.711Z,76.00
2023-05-06T11:09:40.725Z,76.00
2023-05-06T11:10:40.691Z,75.90
2023-05-06T11:11:40.716Z,75.90
2023-05-06T11:12:40.665Z,76.54
2023-05-06T11:13:40.660Z,77.04
2023-05-06T11:14:40.635Z,75.43
2023-05-06T11:15:40.666Z,76.64
2023-05-06T11:16:40.617Z,76.14
2023-05-06T11:17:40.603Z,75.94
2023-05-06T11:18:40.601Z,75.74
2023-05-06T11:19:40.582Z,76.14
2023-05-06T11:20:40.548Z,74.93
2023-05-06T11:21:40.558Z,75.74
2023-05-06T11:22:40.545Z,76.54
2023-05-06T11:23:40.513Z,76.95
2023-05-06T11:24:40.485Z,77.25
2023-05-06T11:25:40.493Z,77.45
2023-05-06T11:26:40.540Z,76.44
2023-05-06T11:27:40.591Z,76.75
2023-05-06T11:28:40.477Z,75.34
2023-05-06T11:29:40.481Z,75.43
2023-05-06T11:30:40.450Z,76.04
2023-05-06T11:31:40.428Z,76.34
2023-05-06T11:32:40.474Z,76.95
2023-05-06T11:33:40.366Z,76.75
2023-05-06T11:34:40.358Z,78.32
2023-05-06T11:35:40.454Z,76.71
2023-05-06T11:36:40.354Z,76.51
2023-05-06T11:37:40.362Z,76.71
2023-05-06T11:38:40.313Z,77.62
2023-05-06T11:39:41.171Z,77.42
2023-05-06T11:40:40.293Z,77.17
2023-05-06T11:41:40.262Z,76.07
2023-05-06T11:42:40.293Z,75.16
2023-05-06T11:43:40.264Z,75.16
2023-05-06T11:44:40.220Z,74.46
2023-05-06T11:45:40.224Z,75.36
2023-05-06T11:46:40.300Z,75.56
2023-05-06T11:47:40.257Z,75.06
2023-05-06T11:48:40.172Z,74.05
2023-05-06T11:49:40.169Z,73.55
2023-05-06T11:50:40.147Z,74.05
2023-05-06T11:51:40.164Z,74.55
2023-05-06T11:52:40.115Z,73.65
2023-05-06T11:53:40.117Z,73.85
2023-05-06T11:54:40.105Z,74.86
2023-05-06T11:55:40.071Z,75.16
2023-05-06T11:56:40.090Z,75.46
2023-05-06T11:57:40.084Z,74.86
2023-05-06T11:58:40.049Z,75.53
2023-05-06T11:59:40.041Z,74.73
2023-05-06T12:00:40.018Z,74.12
2023-05-06T12:01:39.990Z,74.22
2023-05-06T12:02:40.138Z,74.49
2023-05-06T12:03:40.113Z,73.98
2023-05-06T12:04:40.112Z,74.18
2023-05-06T12:05:39.955Z,72.37
2023-05-06T12:06:39.941Z,73.35
2023-05-06T12:07:39.944Z,73.04
2023-05-06T12:08:39.916Z,70.93
2023-05-06T12:09:39.901Z,71.43
2023-05-06T12:10:39.885Z,70.50
2023-05-06T12:11:39.862Z,71.03
2023-05-06T12:12:39.905Z,70.89
2023-05-06T12:13:39.866Z,71.90
2023-05-06T12:14:39.908Z,73.41
2023-05-06T12:15:39.848Z,74.78
2023-05-06T12:16:39.894Z,74.04
2023-05-06T12:17:39.826Z,71.43
2023-05-06T12:18:39.808Z,71.43
2023-05-06T12:19:39.768Z,71.50
2023-05-06T12:20:39.743Z,71.36
2023-05-06T12:21:39.740Z,70.06
2023-05-06T12:22:39.741Z,70.32
2023-05-06T12:23:39.900Z,68.25
2023-05-06T12:24:39.723Z,68.52
2023-05-06T12:25:39.669Z,67.92
2023-05-06T12:26:39.668Z,68.79
2023-05-06T12:27:39.660Z,69.16
2023-05-06T12:28:39.675Z,67.35
2023-05-06T12:29:39.656Z,66.32
2023-05-06T12:30:39.608Z,66.42
2023-05-06T12:31:39.637Z,65.19
2023-05-06T12:32:39.595Z,64.98
2023-05-06T12:33:39.595Z,66.25
2023-05-06T12:34:39.574Z,64.25
2023-05-06T12:35:39.649Z,64.09
2023-05-06T12:36:39.541Z,64.78
2023-05-06T12:37:39.552Z,64.98
2023-05-06T12:38:39.499Z,66.69
2023-05-06T12:39:39.560Z,66.19
2023-05-06T12:40:39.495Z,63.95
2023-05-06T12:41:39.481Z,64.45
2023-05-06T12:42:39.480Z,63.65
2023-05-06T12:43:39.461Z,64.25
2023-05-06T12:44:39.447Z,65.33
2023-05-06T12:45:39.867Z,64.83
2023-05-06T12:46:39.448Z,64.12
2023-05-06T12:47:39.404Z,63.82
2023-05-06T12:48:39.409Z,65.42
2023-05-06T12:49:39.377Z,64.59
2023-05-06T12:50:39.377Z,64.96
2023-05-06T12:51:39.339Z,64.76
2023-05-06T12:52:39.334Z,63.23